.
WxDataArchive / Data Records for 2011-02-13
2011-02-12 February 2011 2011-02-14

Data Records for Sunday, 13 February 2011

Time	Temp	Chill	HIndex	Humid	Dewpt	 Wind 	HiWind	WindDir	Rain 	Barom 
-----	----	-----	------	-----	-----	------	------	-------	-----	----- 
00:00	37.5	37.5	37.5	63	26.1	3	11	248	0.00	29.985 
00:05	37.3	37.3	37.3	64	26.3	3	6	248	0.00	29.985 
00:10	37.3	37.3	37.3	64	26.3	2	9	248	0.00	29.985 
00:15	37.3	37.3	37.3	65	26.6	2	6	248	0.00	29.984 
00:20	37.3	34.2	37.3	65	26.6	4	8	248	0.00	29.984 
00:25	37.5	37.5	37.5	65	26.8	3	8	248	0.00	29.984 
00:30	37.5	37.5	37.5	65	26.8	3	9	248	0.00	29.979 
00:35	37.5	37.5	37.5	65	26.8	3	7	248	0.00	29.979 
00:40	37.5	37.5	37.5	65	26.8	2	6	248	0.00	29.979 
00:45	37.5	34.4	37.5	65	26.8	4	8	248	0.00	29.970 
00:50	37.5	37.5	37.5	65	26.8	3	6	248	0.00	29.970 
00:55	37.6	37.6	37.6	66	27.3	3	9	248	0.00	29.970 
01:00	37.5	37.5	37.5	66	27.2	3	9	248	0.00	29.962 
01:05	37.3	37.3	37.3	67	27.4	3	11	248	0.00	29.962 
01:10	37.3	37.3	37.3	67	27.4	3	5	248	0.00	29.962 
01:15	37.3	37.3	37.3	67	27.4	3	9	248	0.00	29.961 
01:20	37.3	37.3	37.3	67	27.4	3	10	248	0.00	29.961 
01:25	37.3	37.3	37.3	67	27.4	3	13	248	0.00	29.961 
01:30	37.2	37.2	37.2	68	27.6	3	11	248	0.00	29.953 
01:35	37.0	37.0	37.0	68	27.4	2	9	248	0.00	29.953 
01:40	36.9	36.9	36.9	69	27.7	2	9	248	0.00	29.953 
01:45	36.8	36.8	36.8	69	27.6	2	6	248	0.00	29.949 
01:50	36.6	36.6	36.6	69	27.4	3	9	248	0.00	29.949 
01:55	36.6	36.6	36.6	70	27.8	2	6	248	0.00	29.949 
02:00	36.6	36.6	36.6	70	27.8	3	6	248	0.00	29.938 
02:05	36.6	36.6	36.6	70	27.8	3	7	248	0.00	29.938 
02:10	36.6	36.6	36.6	70	27.8	2	5	248	0.00	29.938 
02:15	36.5	36.5	36.5	71	28.0	2	7	248	0.00	29.937 
02:20	36.6	36.6	36.6	71	28.1	2	5	248	0.00	29.937 
02:25	36.6	36.6	36.6	71	28.1	2	5	225	0.00	29.937 
02:30	36.6	36.6	36.6	71	28.1	2	6	225	0.00	29.937 
02:35	36.6	36.6	36.6	71	28.1	2	7	248	0.00	29.937 
02:40	36.8	36.8	36.8	71	28.3	2	6	248	0.00	29.937 
02:45	37.0	37.0	37.0	70	28.1	2	6	248	0.00	29.922 
02:50	37.2	37.2	37.2	70	28.3	3	9	248	0.00	29.922 
02:55	37.3	37.3	37.3	69	28.1	2	5	248	0.00	29.922 
03:00	37.3	37.3	37.3	69	28.1	3	11	248	0.00	29.919 
03:05	37.5	37.5	37.5	69	28.3	3	6	248	0.00	29.919 
03:10	37.6	37.6	37.6	69	28.4	2	6	248	0.00	29.919 
03:15	37.6	37.6	37.6	69	28.4	2	6	248	0.00	29.915 
03:20	37.6	37.6	37.6	69	28.4	3	8	248	0.00	29.915 
03:25	37.6	37.6	37.6	69	28.4	2	6	248	0.01	29.915 
03:30	37.6	37.6	37.6	69	28.4	1	3	225	0.00	29.916 
03:35	37.6	37.6	37.6	69	28.4	1	5	225	0.00	29.916 
03:40	37.6	37.6	37.6	69	28.4	2	7	248	0.00	29.916 
03:45	37.6	37.6	37.6	69	28.4	2	6	248	0.00	29.905 
03:50	37.8	37.8	37.8	68	28.2	2	6	248	0.00	29.905 
03:55	37.8	37.8	37.8	68	28.2	2	5	248	0.00	29.905 
04:00	37.8	37.8	37.8	68	28.2	2	7	248	0.00	29.902 
04:05	37.8	37.8	37.8	68	28.2	2	6	225	0.00	29.902 
04:10	37.6	37.6	37.6	68	28.0	2	5	248	0.00	29.902 
04:15	37.6	37.6	37.6	68	28.0	2	7	248	0.00	29.899 
04:20	37.5	37.5	37.5	68	27.9	1	7	248	0.00	29.899 
04:25	37.3	37.3	37.3	68	27.7	2	6	248	0.00	29.899 
04:30	37.3	37.3	37.3	68	27.7	2	6	248	0.00	29.901 
04:35	37.2	37.2	37.2	68	27.6	2	7	248	0.00	29.901 
04:40	37.2	37.2	37.2	68	27.6	2	7	248	0.00	29.901 
04:45	37.2	37.2	37.2	68	27.6	3	7	248	0.00	29.901 
04:50	37.2	37.2	37.2	68	27.6	2	7	225	0.00	29.901 
04:55	36.9	36.9	36.9	68	27.3	1	5	248	0.00	29.901 
05:00	36.8	36.8	36.8	69	27.6	2	5	248	0.00	29.894 
05:05	36.6	36.6	36.6	69	27.4	2	5	248	0.00	29.894 
05:10	36.6	36.6	36.6	69	27.4	2	6	248	0.00	29.894 
05:15	36.6	36.6	36.6	68	27.1	2	7	248	0.00	29.892 
05:20	36.6	36.6	36.6	68	27.1	2	5	248	0.01	29.892 
05:25	36.5	36.5	36.5	68	27.0	2	9	248	0.00	29.892 
05:30	36.3	36.3	36.3	69	27.1	1	4	248	0.00	29.885 
05:35	36.3	36.3	36.3	69	27.1	2	6	225	0.00	29.885 
05:40	36.2	36.2	36.2	69	27.0	2	6	248	0.00	29.885 
05:45	36.0	36.0	36.0	69	26.8	2	7	248	0.00	29.878 
05:50	36.0	36.0	36.0	69	26.8	2	7	248	0.00	29.878 
05:55	36.0	36.0	36.0	69	26.8	2	4	248	0.00	29.878 
06:00	35.9	35.9	35.9	69	26.7	2	4	248	0.00	29.879 
06:05	35.8	35.8	35.8	69	26.6	2	9	248	0.00	29.879 
06:10	35.8	35.8	35.8	69	26.6	2	7	248	0.00	29.879 
06:15	35.8	35.8	35.8	69	26.6	2	6	248	0.00	29.877 
06:20	35.8	35.8	35.8	69	26.6	2	6	248	0.00	29.877 
06:25	35.6	35.6	35.6	69	26.4	2	6	225	0.00	29.877 
06:30	35.6	35.6	35.6	69	26.4	2	6	225	0.00	29.876 
06:35	35.5	35.5	35.5	69	26.4	3	9	248	0.00	29.876 
06:40	35.5	35.5	35.5	69	26.4	2	6	248	0.00	29.876 
06:45	35.3	35.3	35.3	69	26.2	2	4	248	0.00	29.876 
06:50	35.3	35.3	35.3	69	26.2	2	5	248	0.00	29.876 
06:55	35.0	35.0	35.0	69	25.9	2	7	248	0.00	29.876 
07:00	35.0	35.0	35.0	70	26.2	1	5	225	0.00	29.864 
07:05	34.9	34.9	34.9	70	26.1	2	5	248	0.00	29.864 
07:10	34.7	34.7	34.7	70	25.9	2	6	225	0.00	29.864 
07:15	34.6	34.6	34.6	70	25.8	2	5	248	0.00	29.863 
07:20	34.4	34.4	34.4	71	26.0	1	4	248	0.00	29.863 
07:25	34.3	34.3	34.3	71	25.9	1	6	225	0.00	29.863 
07:30	34.1	34.1	34.1	72	26.0	1	4	225	0.00	29.865 
07:35	34.1	34.1	34.1	72	26.0	2	7	248	0.00	29.865 
07:40	34.1	34.1	34.1	72	26.0	1	3	248	0.00	29.865 
07:45	34.0	34.0	34.0	72	25.9	1	5	248	0.00	29.867 
07:50	34.0	34.0	34.0	72	25.9	2	5	248	0.00	29.867 
07:55	34.0	34.0	34.0	72	25.9	2	6	248	0.00	29.867 
08:00	34.0	34.0	34.0	72	25.9	1	4	248	0.00	29.868 
08:05	34.0	34.0	34.0	72	25.9	1	5	248	0.00	29.868 
08:10	34.0	34.0	34.0	72	25.9	1	5	248	0.00	29.868 
08:15	34.0	34.0	34.0	72	25.9	2	5	248	0.00	29.864 
08:20	34.0	34.0	34.0	72	25.9	2	4	248	0.00	29.864 
08:25	34.1	34.1	34.1	72	26.0	2	5	248	0.00	29.864 
08:30	34.3	34.3	34.3	72	26.2	1	5	248	0.00	29.863 
08:35	34.3	34.3	34.3	72	26.2	2	5	248	0.00	29.863 
08:40	34.4	34.4	34.4	72	26.3	2	6	225	0.00	29.863 
08:45	34.4	34.4	34.4	72	26.3	2	6	225	0.00	29.866 
08:50	34.6	34.6	34.6	71	26.2	2	5	225	0.00	29.866 
08:55	34.9	34.9	34.9	71	26.5	3	9	248	0.00	29.866 
09:00	35.0	35.0	35.0	70	26.2	3	7	248	0.00	29.864 
09:05	35.3	35.3	35.3	70	26.5	3	7	248	0.00	29.864 
09:10	35.6	35.6	35.6	69	26.4	3	9	248	0.00	29.864 
09:15	35.9	35.9	35.9	69	26.7	3	8	248	0.00	29.859 
09:20	36.2	36.2	36.2	68	26.7	3	9	248	0.00	29.859 
09:25	36.3	36.3	36.3	68	26.8	3	10	248	0.00	29.859 
09:30	36.6	33.4	36.6	67	26.7	4	11	248	0.00	29.859 
09:35	36.9	36.9	36.9	67	27.0	3	10	248	0.00	29.859 
09:40	37.0	33.9	37.0	66	26.7	4	10	248	0.00	29.859 
09:45	37.0	37.0	37.0	66	26.7	3	11	248	0.00	29.853 
09:50	37.0	37.0	37.0	66	26.7	3	7	248	0.00	29.853 
09:55	37.3	37.3	37.3	66	27.0	3	7	248	0.00	29.853 
10:00	37.5	37.5	37.5	65	26.8	3	7	248	0.00	29.854 
10:05	37.9	37.9	37.9	65	27.2	3	9	225	0.01	29.854 
10:10	38.3	38.3	38.3	64	27.2	3	9	248	0.00	29.854 
10:15	38.6	38.6	38.6	64	27.5	3	7	248	0.00	29.845 
10:20	38.8	35.9	38.8	63	27.3	4	12	270	0.00	29.845 
10:25	38.9	38.9	38.9	63	27.4	2	5	248	0.01	29.845 
10:30	39.1	36.3	39.1	62	27.2	4	10	248	0.00	29.840 
10:35	39.1	39.1	39.1	63	27.6	3	12	248	0.00	29.840 
10:40	39.2	39.2	39.2	63	27.7	3	10	248	0.01	29.840 
10:45	39.3	39.3	39.3	63	27.8	3	9	248	0.00	29.847 
10:50	39.5	39.5	39.5	62	27.6	2	5	248	0.01	29.847 
10:55	39.6	39.6	39.6	62	27.7	2	7	248	0.00	29.847 
11:00	39.6	36.9	39.6	62	27.7	4	9	248	0.00	29.852 
11:05	39.8	37.1	39.8	62	27.9	4	10	248	0.01	29.852 
11:10	39.8	37.1	39.8	62	27.9	4	10	248	0.00	29.852 
11:15	40.1	37.4	40.1	61	27.7	4	9	248	0.01	29.851 
11:20	40.2	37.5	40.2	61	27.8	4	9	248	0.00	29.851 
11:25	40.5	40.5	40.5	61	28.1	3	12	248	0.01	29.851 
11:30	40.6	38.0	40.6	60	27.8	4	10	248	0.00	29.853 
11:35	40.8	40.8	40.8	60	28.0	3	10	248	0.01	29.853 
11:40	41.1	41.1	41.1	60	28.3	3	6	225	0.00	29.853 
11:45	41.3	41.3	41.3	59	28.1	3	7	248	0.01	29.844 
11:50	41.6	41.6	41.6	59	28.3	3	9	248	0.00	29.844 
11:55	41.6	39.2	41.6	58	27.9	4	12	248	0.01	29.844 
12:00	41.3	38.8	41.3	59	28.1	4	10	248	0.00	29.842 
12:05	41.3	41.3	41.3	59	28.1	3	6	248	0.01	29.842 
12:10	41.2	41.2	41.2	60	28.4	3	11	248	0.00	29.842 
12:15	41.2	41.2	41.2	60	28.4	3	10	248	0.00	29.838 
12:20	41.3	41.3	41.3	60	28.5	3	7	248	0.01	29.838 
12:25	41.3	38.8	41.3	60	28.5	4	9	225	0.00	29.838 
12:30	41.2	38.7	41.2	60	28.4	4	13	248	0.01	29.828 
12:35	41.3	38.8	41.3	60	28.5	4	10	225	0.00	29.828 
12:40	41.3	38.8	41.3	60	28.5	4	10	248	0.01	29.828 
12:45	41.6	39.2	41.6	60	28.8	4	8	248	0.00	29.821 
12:50	41.8	41.8	41.8	59	28.5	3	7	248	0.01	29.821 
12:55	42.1	42.1	42.1	58	28.4	3	10	248	0.00	29.821 
13:00	42.1	39.7	42.1	58	28.4	4	12	248	0.01	29.815 
13:05	42.2	39.1	42.2	58	28.5	5	13	248	0.00	29.815 
13:10	42.3	40.0	42.3	58	28.6	4	14	248	0.00	29.815 
13:15	42.5	39.4	42.5	58	28.8	5	12	248	0.01	29.806 
13:20	42.6	40.3	42.6	58	28.9	4	10	248	0.00	29.806 
13:25	42.8	40.6	42.8	58	29.1	4	10	248	0.00	29.806 
13:30	42.8	40.6	42.8	58	29.1	4	10	248	0.00	29.800 
13:35	42.8	40.6	42.8	58	29.1	4	14	248	0.01	29.800 
13:40	42.9	39.9	42.9	57	28.7	5	12	248	0.00	29.800 
13:45	42.9	40.7	42.9	57	28.7	4	11	270	0.00	29.796 
13:50	43.1	40.9	43.1	57	28.9	4	12	248	0.00	29.796 
13:55	43.2	41.0	43.2	57	29.0	4	13	248	0.01	29.796 
14:00	43.3	43.3	43.3	57	29.1	3	9	248	0.00	29.795 
14:05	43.5	43.5	43.5	57	29.3	3	7	248	0.00	29.795 
14:10	43.6	41.5	43.6	56	29.0	4	9	248	0.01	29.795 
14:15	43.8	43.8	43.8	56	29.1	3	6	248	0.00	29.787 
14:20	43.9	41.8	43.9	55	28.8	4	10	248	0.00	29.787 
14:25	43.9	41.8	43.9	55	28.8	4	9	248	0.00	29.787 
14:30	44.1	44.1	44.1	55	29.0	3	10	248	0.01	29.778 
14:35	44.1	41.3	44.1	55	29.0	5	12	248	0.00	29.778 
14:40	44.1	44.1	44.1	55	29.0	3	9	248	0.00	29.778 
14:45	44.3	41.5	44.3	54	28.7	5	10	248	0.00	29.771 
14:50	44.3	40.9	44.3	54	28.7	6	11	248	0.01	29.771 
14:55	44.2	41.4	44.2	54	28.6	5	11	248	0.00	29.771 
15:00	44.3	42.3	44.3	54	28.7	4	9	248	0.00	29.770 
15:05	44.3	41.5	44.3	54	28.7	5	12	248	0.00	29.770 
15:10	44.3	42.3	44.3	54	28.7	4	12	248	0.00	29.770 
15:15	44.3	41.5	44.3	54	28.7	5	10	248	0.01	29.770 
15:20	44.5	42.5	44.5	54	28.9	4	11	270	0.00	29.770 
15:25	44.9	43.0	44.9	54	29.3	4	10	248	0.00	29.770 
15:30	45.1	43.2	45.1	53	29.0	4	9	248	0.00	29.765 
15:35	45.1	43.2	45.1	53	29.0	4	9	248	0.00	29.765 
15:40	45.1	43.2	45.1	53	29.0	4	8	248	0.00	29.765 
15:45	44.8	42.9	44.8	53	28.7	4	9	248	0.00	29.757 
15:50	44.8	44.8	44.8	54	29.2	2	6	248	0.00	29.757 
15:55	44.8	44.8	44.8	54	29.2	2	5	248	0.01	29.757 
16:00	44.6	44.6	44.6	54	29.0	2	9	270	0.00	29.754 
16:05	44.6	44.6	44.6	54	29.0	3	10	248	0.00	29.754 
16:10	44.8	44.8	44.8	54	29.2	3	13	248	0.00	29.754 
16:15	44.8	42.9	44.8	54	29.2	4	13	248	0.00	29.751 
16:20	44.8	42.9	44.8	54	29.2	4	11	248	0.00	29.751 
16:25	44.8	42.9	44.8	54	29.2	4	10	225	0.00	29.751 
16:30	44.9	43.0	44.9	54	29.3	4	9	248	0.00	29.755 
16:35	44.9	44.9	44.9	54	29.3	3	10	248	0.00	29.755 
16:40	44.9	43.0	44.9	54	29.3	4	11	248	0.00	29.755 
16:45	44.8	44.8	44.8	54	29.2	3	9	248	0.00	29.762 
16:50	44.6	41.9	44.6	54	29.0	5	12	248	0.00	29.762 
16:55	44.5	44.5	44.5	54	28.9	3	10	248	0.00	29.762 
17:00	44.2	42.2	44.2	54	28.6	4	12	248	0.00	29.758 
17:05	44.2	44.2	44.2	55	29.1	3	7	248	0.00	29.758 
17:10	44.1	44.1	44.1	56	29.4	2	7	248	0.00	29.758 
17:15	44.2	44.2	44.2	55	29.1	3	7	248	0.00	29.750 
17:20	44.2	42.2	44.2	55	29.1	4	10	248	0.00	29.750 
17:25	44.3	42.3	44.3	55	29.2	4	14	248	0.00	29.750 
17:30	44.2	44.2	44.2	56	29.5	3	6	225	0.00	29.743 
17:35	44.1	44.1	44.1	56	29.4	3	7	248	0.00	29.743 
17:40	43.9	43.9	43.9	56	29.2	3	9	248	0.00	29.743 
17:45	43.8	41.7	43.8	56	29.1	4	12	248	0.00	29.741 
17:50	43.6	43.6	43.6	57	29.4	3	10	248	0.00	29.741 
17:55	43.5	43.5	43.5	57	29.3	3	7	248	0.00	29.741 
18:00	43.5	43.5	43.5	57	29.3	3	7	248	0.00	29.725 
18:05	43.3	43.3	43.3	58	29.5	2	5	225	0.00	29.725 
18:10	43.1	43.1	43.1	58	29.3	3	6	248	0.00	29.725 
18:15	42.9	42.9	42.9	58	29.2	2	4	225	0.00	29.725 
18:20	42.8	42.8	42.8	59	29.5	2	5	248	0.00	29.725 
18:25	42.6	42.6	42.6	59	29.3	2	7	248	0.00	29.725 
18:30	42.5	42.5	42.5	59	29.2	1	4	248	0.00	29.717 
18:35	42.3	42.3	42.3	59	29.0	2	6	248	0.00	29.717 
18:40	42.3	42.3	42.3	60	29.4	2	9	248	0.00	29.717 
18:45	42.3	42.3	42.3	60	29.4	2	6	248	0.00	29.720 
18:50	42.3	42.3	42.3	60	29.4	2	5	248	0.00	29.720 
18:55	42.3	42.3	42.3	60	29.4	2	6	248	0.00	29.720 
19:00	42.3	42.3	42.3	60	29.4	3	10	248	0.00	29.712 
19:05	42.3	42.3	42.3	60	29.4	2	6	248	0.00	29.712 
19:10	42.5	42.5	42.5	59	29.2	2	5	248	0.00	29.712 
19:15	42.5	42.5	42.5	59	29.2	2	9	225	0.00	29.704 
19:20	42.8	40.6	42.8	59	29.5	4	10	248	0.00	29.704 
19:25	43.2	43.2	43.2	58	29.4	3	8	248	0.00	29.704 
19:30	43.3	43.3	43.3	58	29.5	3	7	248	0.00	29.696 
19:35	43.3	43.3	43.3	58	29.5	3	10	248	0.00	29.696 
19:40	43.6	41.5	43.6	57	29.4	4	14	248	0.00	29.696 
19:45	43.6	43.6	43.6	57	29.4	3	9	248	0.00	29.693 
19:50	43.6	43.6	43.6	57	29.4	3	8	248	0.00	29.693 
19:55	43.5	43.5	43.5	58	29.7	3	7	248	0.00	29.693 
20:00	43.5	43.5	43.5	58	29.7	3	7	248	0.00	29.682 
20:05	43.5	43.5	43.5	58	29.7	3	7	248	0.00	29.682 
20:10	43.6	41.5	43.6	58	29.8	4	12	248	0.00	29.682 
20:15	43.8	43.8	43.8	57	29.6	3	11	248	0.00	29.678 
20:20	43.9	41.8	43.9	57	29.7	4	10	248	0.00	29.678 
20:25	44.1	42.1	44.1	57	29.9	4	12	248	0.00	29.678 
20:30	43.9	43.9	43.9	57	29.7	3	7	248	0.00	29.668 
20:35	43.8	43.8	43.8	58	30.0	3	9	248	0.00	29.668 
20:40	43.8	43.8	43.8	58	30.0	3	11	248	0.00	29.668 
20:45	43.9	41.8	43.9	58	30.1	4	7	248	0.00	29.661 
20:50	44.1	44.1	44.1	58	30.3	3	9	248	0.00	29.661 
20:55	44.2	42.2	44.2	58	30.4	4	11	248	0.00	29.661 
21:00	44.3	42.3	44.3	57	30.0	4	12	248	0.00	29.659 
21:05	44.5	44.5	44.5	57	30.2	3	10	270	0.00	29.659 
21:10	44.6	42.6	44.6	57	30.3	4	12	248	0.00	29.659 
21:15	44.8	42.1	44.8	56	30.1	5	10	248	0.00	29.638 
21:20	44.9	43.0	44.9	56	30.2	4	11	248	0.00	29.638 
21:25	45.1	43.2	45.1	56	30.4	4	15	248	0.00	29.638 
21:30	45.1	43.2	45.1	55	29.9	4	11	248	0.00	29.617 
21:35	45.2	43.3	45.2	55	30.0	4	11	248	0.00	29.617 
21:40	45.2	43.3	45.2	55	30.0	4	11	248	0.00	29.617 
21:45	45.1	43.2	45.1	55	29.9	4	12	248	0.00	29.610 
21:50	45.1	43.2	45.1	55	29.9	4	10	248	0.00	29.610 
21:55	45.2	43.3	45.2	55	30.0	4	10	270	0.00	29.610 
22:00	45.4	43.6	45.4	55	30.2	4	9	248	0.00	29.611 
22:05	45.5	42.9	45.5	54	29.8	5	11	248	0.00	29.611 
22:10	45.5	43.7	45.5	54	29.8	4	11	270	0.00	29.611 
22:15	45.4	43.6	45.4	55	30.2	4	11	248	0.00	29.599 
22:20	45.4	42.8	45.4	54	29.7	5	11	248	0.00	29.599 
22:25	45.4	42.8	45.4	54	29.7	5	13	248	0.00	29.599 
22:30	45.4	43.6	45.4	54	29.7	4	11	248	0.00	29.595 
22:35	45.2	43.3	45.2	55	30.0	4	14	248	0.00	29.595 
22:40	45.4	42.8	45.4	54	29.7	5	13	248	0.00	29.595 
22:45	45.2	43.3	45.2	54	29.6	4	9	248	0.00	29.592 
22:50	45.5	42.9	45.5	54	29.8	5	15	248	0.00	29.592 
22:55	45.8	43.3	45.8	53	29.7	5	12	248	0.00	29.592 
23:00	46.1	43.0	46.1	53	29.9	6	15	248	0.00	29.576 
23:05	46.2	43.8	46.2	52	29.6	5	12	248	0.00	29.576 
23:10	46.4	43.4	46.4	51	29.3	6	17	248	0.00	29.576 
23:15	46.7	44.3	46.7	51	29.5	5	20	248	0.00	29.574 
23:20	46.7	44.3	46.7	51	29.5	5	12	248	0.00	29.574 
23:25	46.7	43.7	46.7	51	29.5	6	16	270	0.00	29.574 
23:30	47.3	43.9	47.3	50	29.6	7	18	270	0.00	29.572 
23:35	47.6	44.8	47.6	49	29.4	6	11	248	0.00	29.572 
23:40	47.6	44.8	47.6	49	29.4	6	20	248	0.00	29.572 
23:45	47.6	45.4	47.6	49	29.4	5	14	248	0.00	29.558 
23:50	47.6	44.3	47.6	50	29.9	7	16	270	0.00	29.558 
23:55	47.4	44.6	47.4	50	29.7	6	13	270	0.00	29.558 

CoCoRaHS
IN-AL-39
A2 Web Hosting
Creative Commons License
GoDaddy
search engine by freefind advanced

loaded 2018-11-20 02:48:27 • last modified 2010-11-18 10:43:29
Privacy PolicyDisclaimer
• wx.awcolley.com is powered by PmWiki v.2002016 •
• all content (unless otherwise noted) © 2018 A W Colley